Scottish Viking — IBDZ — position and weather

sailwx.info

Track history (hours):
 
Tides and Currents Weather Stations Pressure Air Temp Water Temp Dewpoint Dewpoint Depression Visibility Wind Speed Wind Dir Waves Ship Positions

Scottish Viking

Last reported at 2016-Jun-22 16:09 UTC. Time now 2016-Jun-25 10:42 UTC.
Position N 58°49' E 017°60'.

Length 186 m; draft 6.5 m.

Type: Ship. MMSI: 247265800.

Date/timePositionNaut miles runAvg speedWind from/ knotsBaromVisibWave heightAir tempDewpointWater temp
2016-Jun-22 16:09N 58°49' E 017°60'  
2016-Jun-15 15:33N 58°41' E 018°17'2322.7
2016-Jun-15 14:33N 58°25' E 018°46'47 3.1
2016-Jun-14 23:21N 57°56' E 019°58'1114.0
2016-Jun-14 22:34N 58°02' E 019°40'1413.9
2016-Jun-14 21:33N 58°09' E 019°17'1413.8
2016-Jun-14 20:33N 58°18' E 018°57'1413.8
2016-Jun-14 19:33N 58°28' E 018°39'1413.7
2016-Jun-14 18:33N 58°38' E 018°21'1414.1
2016-Jun-14 17:34N 58°48' E 018°02'7 0.5
2016-Jun-14 04:26N 58°55' E 017°59'1618.8
2016-Jun-14 03:33N 58°41' E 018°16'2121.2
2016-Jun-14 02:33N 58°26' E 018°45'2320.8
2016-Jun-14 01:27N 58°10' E 019°16'1820.4
2016-Jun-14 00:33N 58°00' E 019°45'2121.5
2016-Jun-13 23:33N 57°50' E 020°21'2120.9
2016-Jun-13 22:33N 57°36' E 020°51'2120.7
2016-Jun-13 21:33N 57°28' E 021°25'6 4.2
2016-Jun-13 20:07N 57°24' E 021°35'49 8.2
2016-Jun-13 14:08N 57°50' E 020°17'914.1
2016-Jun-13 13:30N 57°55' E 020°02'1314.0
2016-Jun-13 12:33N 58°02' E 019°41'1414.1
2016-Jun-13 11:34N 58°09' E 019°18'1414.1
2016-Jun-13 10:34N 58°18' E 018°58'1414.1
2016-Jun-13 09:33N 58°29' E 018°39'1514.0
2016-Jun-13 08:30N 58°39' E 018°20'1314.0
2016-Jun-13 07:34N 58°49' E 018°02'13 3.3
2016-Jun-13 03:31N 58°39' E 018°20'3021.9
2016-Jun-13 02:10N 58°18' E 018°60'1214.6
2016-Jun-13 01:19N 58°10' E 019°17'1013.2
2016-Jun-13 00:33N 58°04' E 019°33'  
Track history (hours):
 
Tides and Currents Weather Stations Pressure Air Temp Water Temp Dewpoint Dewpoint Depression Visibility Wind Speed Wind Dir Waves Ship Positions

Scottish Viking

Last reported at 2016-Jun-22 16:09 UTC. Time now 2016-Jun-25 10:42 UTC.
Position N 58°49' E 017°60'.

Length 186 m; draft 6.5 m.

Type: Ship. MMSI: 247265800.

Date/timePositionNaut miles runAvg speedWind from/ knotsBaromVisibWave heightAir tempDewpointWater temp
2016-Jun-22 16:09N 58°49' E 017°60'  
2016-Jun-15 15:33N 58°41' E 018°17'2322.7
2016-Jun-15 14:33N 58°25' E 018°46'47 3.1
2016-Jun-14 23:21N 57°56' E 019°58'1114.0
2016-Jun-14 22:34N 58°02' E 019°40'1413.9
2016-Jun-14 21:33N 58°09' E 019°17'1413.8
2016-Jun-14 20:33N 58°18' E 018°57'1413.8
2016-Jun-14 19:33N 58°28' E 018°39'1413.7
2016-Jun-14 18:33N 58°38' E 018°21'1414.1
2016-Jun-14 17:34N 58°48' E 018°02'7 0.5
2016-Jun-14 04:26N 58°55' E 017°59'1618.8
2016-Jun-14 03:33N 58°41' E 018°16'2121.2
2016-Jun-14 02:33N 58°26' E 018°45'2320.8
2016-Jun-14 01:27N 58°10' E 019°16'1820.4
2016-Jun-14 00:33N 58°00' E 019°45'2121.5
2016-Jun-13 23:33N 57°50' E 020°21'2120.9
2016-Jun-13 22:33N 57°36' E 020°51'2120.7
2016-Jun-13 21:33N 57°28' E 021°25'6 4.2
2016-Jun-13 20:07N 57°24' E 021°35'49 8.2
2016-Jun-13 14:08N 57°50' E 020°17'914.1
2016-Jun-13 13:30N 57°55' E 020°02'1314.0
2016-Jun-13 12:33N 58°02' E 019°41'1414.1
2016-Jun-13 11:34N 58°09' E 019°18'1414.1
2016-Jun-13 10:34N 58°18' E 018°58'1414.1
2016-Jun-13 09:33N 58°29' E 018°39'1514.0
2016-Jun-13 08:30N 58°39' E 018°20'1314.0
2016-Jun-13 07:34N 58°49' E 018°02'13 3.3
2016-Jun-13 03:31N 58°39' E 018°20'3021.9
2016-Jun-13 02:10N 58°18' E 018°60'1214.6
2016-Jun-13 01:19N 58°10' E 019°17'1013.2
2016-Jun-13 00:33N 58°04' E 019°33'  

Dump ship's entire track history